createdAt,value
2018-06-05T00:00:13.765Z,18.46
2018-06-05T00:01:13.577Z,18.44
2018-06-05T00:02:13.638Z,18.44
2018-06-05T00:03:13.701Z,18.32
2018-06-05T00:04:13.764Z,18.31
2018-06-05T00:05:13.826Z,18.31
2018-06-05T00:06:13.888Z,18.36
2018-06-05T00:07:13.951Z,18.19
2018-06-05T00:08:14.012Z,18.28
2018-06-05T00:09:14.075Z,18.35
2018-06-05T00:10:14.136Z,18.49
2018-06-05T00:11:14.201Z,18.50
2018-06-05T00:12:14.262Z,18.46
2018-06-05T00:13:14.325Z,18.31
2018-06-05T00:14:14.387Z,18.34
2018-06-05T00:15:14.447Z,18.35
2018-06-05T00:16:14.663Z,18.35
2018-06-05T00:17:14.574Z,18.32
2018-06-05T00:18:14.634Z,18.41
2018-06-05T00:19:14.698Z,18.56
2018-06-05T00:20:14.759Z,18.35
2018-06-05T00:21:14.824Z,18.36
2018-06-05T00:22:14.910Z,18.34
2018-06-05T00:23:14.944Z,18.31
2018-06-05T00:24:15.008Z,18.25
2018-06-05T00:25:15.070Z,18.20
2018-06-05T00:26:15.133Z,18.19
2018-06-05T00:27:15.194Z,18.17
2018-06-05T00:28:15.257Z,18.21
2018-06-05T00:29:15.320Z,18.10
2018-06-05T00:30:15.380Z,18.09
2018-06-05T00:31:15.443Z,17.96
2018-06-05T00:32:15.505Z,17.91
2018-06-05T00:33:15.570Z,17.96
2018-06-05T00:34:15.781Z,17.87
2018-06-05T00:35:15.691Z,17.87
2018-06-05T00:36:15.754Z,17.91
2018-06-05T00:37:15.817Z,17.84
2018-06-05T00:38:15.877Z,17.73
2018-06-05T00:39:15.940Z,17.77
2018-06-05T00:40:16.008Z,17.63
2018-06-05T00:41:16.066Z,17.60
2018-06-05T00:42:16.127Z,17.60
2018-06-05T00:43:16.190Z,17.57
2018-06-05T00:44:16.252Z,17.58
2018-06-05T00:45:16.314Z,17.53
2018-06-05T00:46:16.377Z,17.51
2018-06-05T00:47:16.439Z,17.51
2018-06-05T00:48:16.499Z,17.55
2018-06-05T00:49:16.562Z,17.54
2018-06-05T00:50:16.627Z,17.47
2018-06-05T00:51:16.685Z,17.47
2018-06-05T00:52:16.749Z,17.47
2018-06-05T00:53:16.809Z,17.40
2018-06-05T00:54:16.871Z,17.38
2018-06-05T00:56:49.524Z,17.38
2018-06-05T00:57:49.582Z,17.39
2018-06-05T00:58:49.644Z,17.40
2018-06-05T00:59:49.717Z,17.36
2018-06-05T01:00:49.786Z,17.38
2018-06-05T01:01:49.833Z,17.38
2018-06-05T01:02:49.896Z,17.39
2018-06-05T01:03:49.953Z,17.38
2018-06-05T01:04:50.018Z,17.39
2018-06-05T01:05:50.078Z,17.33
2018-06-05T01:06:50.140Z,17.42
2018-06-05T01:07:50.203Z,17.47
2018-06-05T01:08:50.263Z,17.55
2018-06-05T01:09:50.325Z,17.55
2018-06-05T01:10:50.387Z,17.55
2018-06-05T01:11:50.448Z,17.62
2018-06-05T01:12:50.512Z,17.58
2018-06-05T01:13:50.573Z,17.54
2018-06-05T01:14:50.638Z,17.51
2018-06-05T01:15:50.697Z,17.55
2018-06-05T01:16:50.758Z,17.39
2018-06-05T01:17:50.820Z,17.36
2018-06-05T01:18:50.882Z,17.45
2018-06-05T01:19:50.943Z,17.60
2018-06-05T01:20:51.006Z,17.58
2018-06-05T01:21:51.067Z,17.63
2018-06-05T01:22:51.129Z,17.57
2018-06-05T01:23:51.191Z,17.51
2018-06-05T01:24:51.252Z,17.45
2018-06-05T01:25:51.314Z,17.51
2018-06-05T01:26:51.376Z,17.54
2018-06-05T01:27:51.437Z,17.66
2018-06-05T01:28:51.500Z,17.57
2018-06-05T01:29:51.561Z,17.54
2018-06-05T01:30:51.623Z,17.47
2018-06-05T01:31:51.684Z,17.55
2018-06-05T01:32:51.746Z,17.53
2018-06-05T01:33:51.809Z,17.47
2018-06-05T01:34:51.870Z,17.35
2018-06-05T01:35:51.931Z,17.36
2018-06-05T01:36:51.992Z,17.28
2018-06-05T01:37:52.055Z,17.28
2018-06-05T01:38:52.117Z,17.24
2018-06-05T01:39:52.185Z,17.18
2018-06-05T01:40:52.245Z,17.18
2018-06-05T01:41:52.302Z,17.22
2018-06-05T01:42:52.372Z,17.22
2018-06-05T01:43:52.431Z,17.32
2018-06-05T01:44:52.487Z,17.28
2018-06-05T01:45:52.550Z,17.22
2018-06-05T01:46:52.611Z,17.28
2018-06-05T01:47:52.675Z,17.24
2018-06-05T01:48:52.734Z,17.33
2018-06-05T01:49:52.796Z,17.18
2018-06-05T01:50:52.860Z,17.10
2018-06-05T01:51:52.919Z,17.15
2018-06-05T01:52:53.232Z,17.10
2018-06-05T01:53:53.043Z,17.05
2018-06-05T01:54:53.120Z,17.07
2018-06-05T01:55:53.170Z,16.98
2018-06-05T01:56:53.227Z,16.96
2018-06-05T01:57:53.293Z,16.99
2018-06-05T01:58:53.351Z,16.98
2018-06-05T01:59:53.427Z,16.88
2018-06-05T02:00:53.474Z,16.90
2018-06-05T02:01:53.536Z,16.92
2018-06-05T02:02:53.598Z,17.03
2018-06-05T02:03:53.659Z,16.95
2018-06-05T02:04:53.721Z,16.92
2018-06-05T02:05:53.783Z,17.00
2018-06-05T02:06:53.845Z,17.18
2018-06-05T02:07:53.906Z,17.18
2018-06-05T02:08:53.968Z,17.05
2018-06-05T02:09:54.030Z,17.00
2018-06-05T02:10:54.092Z,17.03
2018-06-05T02:11:54.151Z,16.91
2018-06-05T02:12:54.214Z,16.95
2018-06-05T02:13:54.278Z,16.81
2018-06-05T02:14:54.337Z,16.84
2018-06-05T02:15:54.398Z,16.91
2018-06-05T02:16:54.461Z,16.73
2018-06-05T02:17:54.520Z,16.70
2018-06-05T02:18:54.585Z,16.67
2018-06-05T02:19:54.644Z,16.55
2018-06-05T02:20:54.706Z,16.62
2018-06-05T02:21:54.768Z,16.66
2018-06-05T02:22:54.829Z,16.54
2018-06-05T02:23:54.892Z,16.55
2018-06-05T02:24:54.952Z,16.62
2018-06-05T02:25:55.015Z,16.57
2018-06-05T02:26:55.075Z,16.52
2018-06-05T02:27:55.137Z,16.50
2018-06-05T02:28:55.200Z,16.47
2018-06-05T02:29:55.261Z,16.65
2018-06-05T02:30:55.323Z,16.63
2018-06-05T02:31:55.383Z,16.70
2018-06-05T02:32:55.446Z,16.70
2018-06-05T02:33:55.507Z,16.70
2018-06-05T02:34:55.569Z,16.67
2018-06-05T02:35:55.630Z,16.67
2018-06-05T02:36:55.694Z,16.69
2018-06-05T02:37:55.753Z,16.69
2018-06-05T02:38:55.815Z,16.62
2018-06-05T02:39:55.883Z,16.63
2018-06-05T02:40:55.942Z,16.70
2018-06-05T02:41:55.999Z,16.66
2018-06-05T02:42:56.060Z,16.63
2018-06-05T02:43:56.121Z,16.57
2018-06-05T02:44:56.183Z,16.62
2018-06-05T02:45:56.257Z,16.69
2018-06-05T02:46:56.305Z,16.59
2018-06-05T02:47:56.367Z,16.55
2018-06-05T02:48:56.429Z,16.59
2018-06-05T02:49:56.491Z,16.51
2018-06-05T02:50:56.553Z,16.48
2018-06-05T02:51:56.623Z,16.48
2018-06-05T02:52:56.675Z,16.48
2018-06-05T02:53:56.736Z,16.54
2018-06-05T02:54:56.815Z,16.42
2018-06-05T02:55:56.859Z,16.47
2018-06-05T02:56:56.919Z,16.41
2018-06-05T02:57:56.983Z,16.55
2018-06-05T02:58:57.044Z,16.67
2018-06-05T02:59:57.121Z,16.87
2018-06-05T03:00:57.217Z,16.73
2018-06-05T03:01:57.229Z,16.91
2018-06-05T03:02:57.297Z,16.90
2018-06-05T03:03:57.355Z,16.87
2018-06-05T03:04:57.412Z,16.77
2018-06-05T03:05:57.474Z,16.66
2018-06-05T03:06:57.537Z,16.66
2018-06-05T03:07:57.600Z,16.62
2018-06-05T03:08:57.657Z,16.67
2018-06-05T03:09:57.719Z,16.67
2018-06-05T03:10:57.780Z,16.69
2018-06-05T03:11:57.841Z,16.69
2018-06-05T03:12:57.902Z,16.66
2018-06-05T03:13:57.965Z,16.67
2018-06-05T03:14:58.026Z,16.54
2018-06-05T03:15:58.090Z,16.67
2018-06-05T03:16:58.148Z,16.62
2018-06-05T03:17:58.209Z,16.63
2018-06-05T03:18:58.272Z,16.69
2018-06-05T03:19:58.332Z,16.77
2018-06-05T03:20:58.394Z,16.73
2018-06-05T03:21:58.454Z,16.84
2018-06-05T03:22:58.516Z,16.75
2018-06-05T03:23:58.577Z,16.67
2018-06-05T03:24:58.639Z,16.59
2018-06-05T03:25:58.705Z,16.57
2018-06-05T03:26:58.762Z,16.57
2018-06-05T03:27:58.821Z,16.40
2018-06-05T03:28:58.883Z,16.37
2018-06-05T03:29:58.946Z,16.36
2018-06-05T03:30:59.008Z,16.41
2018-06-05T03:31:59.068Z,16.29
2018-06-05T03:32:59.128Z,16.27
2018-06-05T03:33:59.197Z,16.25
2018-06-05T03:34:59.253Z,16.32
2018-06-05T03:35:59.313Z,16.27
2018-06-05T03:36:59.375Z,16.33
2018-06-05T03:37:59.436Z,16.29
2018-06-05T03:38:59.497Z,16.27
2018-06-05T03:39:59.559Z,16.41
2018-06-05T03:40:59.620Z,16.63
2018-06-05T03:41:59.684Z,16.69
2018-06-05T03:42:59.744Z,16.77
2018-06-05T03:43:59.804Z,16.66
2018-06-05T03:44:59.865Z,16.73
2018-06-05T03:45:59.926Z,16.75
2018-06-05T03:46:59.989Z,16.69
2018-06-05T03:48:00.050Z,16.69
2018-06-05T03:49:00.111Z,16.69
2018-06-05T03:50:00.172Z,16.77
2018-06-05T03:51:00.234Z,16.77
2018-06-05T03:52:00.299Z,16.69
2018-06-05T03:53:00.356Z,16.67
2018-06-05T03:54:00.420Z,16.63
2018-06-05T03:55:00.479Z,16.63
2018-06-05T03:56:00.540Z,16.66
2018-06-05T03:57:00.602Z,16.59
2018-06-05T03:58:00.664Z,16.60
2018-06-05T03:59:00.726Z,16.63
2018-06-05T04:00:00.788Z,16.69
2018-06-05T04:01:00.848Z,16.78
2018-06-05T04:02:00.911Z,16.75
2018-06-05T04:03:00.971Z,16.73
2018-06-05T04:04:01.032Z,16.51
2018-06-05T04:05:01.096Z,16.44
2018-06-05T04:06:01.531Z,16.37
2018-06-05T04:07:01.219Z,16.36
2018-06-05T04:08:01.280Z,16.27
2018-06-05T04:09:01.341Z,16.48
2018-06-05T04:10:01.403Z,16.42
2018-06-05T04:11:01.465Z,16.40
2018-06-05T04:12:01.526Z,16.47
2018-06-05T04:13:01.588Z,16.52
2018-06-05T04:14:01.650Z,16.63
2018-06-05T04:15:01.711Z,16.52
2018-06-05T04:16:01.778Z,16.52
2018-06-05T04:17:01.834Z,16.48
2018-06-05T04:18:01.899Z,16.36
2018-06-05T04:19:01.957Z,16.37
2018-06-05T04:20:02.018Z,16.44
2018-06-05T04:21:02.081Z,16.40
2018-06-05T04:22:02.141Z,16.47
2018-06-05T04:23:02.206Z,16.44
2018-06-05T04:24:02.263Z,16.50
2018-06-05T04:25:02.327Z,16.45
2018-06-05T04:26:02.388Z,16.59
2018-06-05T04:27:02.468Z,16.52
2018-06-05T04:28:02.511Z,16.63
2018-06-05T04:29:02.582Z,16.55
2018-06-05T04:30:02.651Z,16.52
2018-06-05T04:31:02.699Z,16.48
2018-06-05T04:32:02.757Z,16.44
2018-06-05T04:33:02.817Z,16.40
2018-06-05T04:34:02.881Z,16.45
2018-06-05T04:35:02.942Z,16.42
2018-06-05T04:36:03.022Z,16.42
2018-06-05T04:37:03.066Z,16.48
2018-06-05T04:38:03.128Z,16.50
2018-06-05T04:39:03.190Z,16.51
2018-06-05T04:40:03.250Z,16.50
2018-06-05T04:41:03.316Z,16.47
2018-06-05T04:42:03.375Z,16.50
2018-06-05T04:43:03.437Z,16.57
2018-06-05T04:44:03.497Z,16.69
2018-06-05T04:45:03.560Z,16.73
2018-06-05T04:46:03.621Z,16.81
2018-06-05T04:47:03.683Z,16.78
2018-06-05T04:48:03.748Z,16.90
2018-06-05T04:49:03.807Z,16.92
2018-06-05T04:50:03.870Z,17.02
2018-06-05T04:51:03.931Z,16.99
2018-06-05T04:52:03.992Z,16.99
2018-06-05T04:53:04.054Z,16.90
2018-06-05T04:54:04.115Z,16.88
2018-06-05T04:55:04.178Z,16.92
2018-06-05T04:56:04.239Z,16.78
2018-06-05T04:57:04.301Z,16.90
2018-06-05T04:58:04.363Z,16.91
2018-06-05T04:59:04.427Z,16.95
2018-06-05T05:00:04.489Z,16.90
2018-06-05T05:01:04.547Z,16.92
2018-06-05T05:02:04.610Z,16.99
2018-06-05T05:03:04.673Z,17.05
2018-06-05T05:04:04.735Z,17.00
2018-06-05T05:05:04.796Z,16.98
2018-06-05T05:06:04.860Z,17.02
2018-06-05T05:07:04.921Z,17.10
2018-06-05T05:08:04.981Z,17.22
2018-06-05T05:09:05.045Z,17.30
2018-06-05T05:10:05.109Z,17.32
2018-06-05T05:11:05.170Z,17.38
2018-06-05T05:12:05.230Z,17.39
2018-06-05T05:13:05.295Z,17.49
2018-06-05T05:14:05.354Z,17.46
2018-06-05T05:15:05.417Z,17.60
2018-06-05T05:16:05.480Z,17.55
2018-06-05T05:17:05.541Z,17.55
2018-06-05T05:18:06.213Z,17.62
2018-06-05T05:19:05.977Z,17.68
2018-06-05T05:20:06.357Z,17.76
2018-06-05T05:21:06.316Z,17.79
2018-06-05T05:22:06.104Z,17.84
2018-06-05T05:23:05.918Z,17.95
2018-06-05T05:24:05.978Z,17.98
2018-06-05T05:25:06.039Z,17.94
2018-06-05T05:26:06.106Z,18.01
2018-06-05T05:27:06.172Z,17.96
2018-06-05T05:28:06.227Z,18.11
2018-06-05T05:29:06.543Z,18.11
2018-06-05T05:30:06.353Z,18.05
2018-06-05T05:31:06.415Z,17.98
2018-06-05T05:32:06.478Z,18.01
2018-06-05T05:33:06.539Z,18.10
2018-06-05T05:34:06.601Z,18.09
2018-06-05T05:35:06.664Z,18.11
2018-06-05T05:36:06.746Z,18.13
2018-06-05T05:37:06.790Z,18.11
2018-06-05T05:38:06.852Z,18.14
2018-06-05T05:39:07.773Z,18.14
2018-06-05T05:40:06.980Z,18.26
2018-06-05T05:41:07.039Z,18.21
2018-06-05T05:42:07.106Z,18.28
2018-06-05T05:43:07.165Z,18.26
2018-06-05T05:44:07.226Z,18.31
2018-06-05T05:45:07.290Z,18.34
2018-06-05T05:46:07.355Z,18.21
2018-06-05T05:47:07.443Z,18.17
2018-06-05T05:48:07.482Z,18.36
2018-06-05T05:49:07.542Z,18.35
2018-06-05T05:50:07.605Z,18.29
2018-06-05T05:51:07.669Z,18.34
2018-06-05T05:52:07.731Z,18.35
2018-06-05T05:53:07.794Z,18.42
2018-06-05T05:54:08.233Z,18.47
2018-06-05T05:55:08.267Z,18.56
2018-06-05T05:56:07.982Z,18.42
2018-06-05T05:57:08.048Z,18.53
2018-06-05T05:58:08.110Z,18.46
2018-06-05T05:59:08.173Z,18.54
2018-06-05T06:00:08.236Z,18.49
2018-06-05T06:01:08.332Z,18.56
2018-06-05T06:02:08.391Z,18.54
2018-06-05T06:03:08.426Z,18.64
2018-06-05T06:04:08.492Z,18.68
2018-06-05T06:05:08.553Z,18.91
2018-06-05T06:06:08.616Z,18.84
2018-06-05T06:07:08.680Z,18.82
2018-06-05T06:08:08.742Z,18.83
2018-06-05T06:09:08.806Z,18.86
2018-06-05T06:10:08.870Z,18.74
2018-06-05T06:11:08.933Z,18.84
2018-06-05T06:12:08.995Z,18.89
2018-06-05T06:13:09.058Z,19.13
2018-06-05T06:14:09.122Z,19.16
2018-06-05T06:15:09.186Z,19.34
2018-06-05T06:16:09.248Z,19.39
2018-06-05T06:17:09.314Z,19.40
2018-06-05T06:18:09.388Z,19.43
2018-06-05T06:19:09.439Z,19.31
2018-06-05T06:20:09.500Z,19.30
2018-06-05T06:21:09.564Z,19.23
2018-06-05T06:22:09.630Z,19.27
2018-06-05T06:23:09.694Z,19.34
2018-06-05T06:24:10.531Z,19.32
2018-06-05T06:25:09.822Z,19.28
2018-06-05T06:26:09.883Z,19.32
2018-06-05T06:27:09.945Z,19.35
2018-06-05T06:28:10.162Z,19.35
2018-06-05T06:29:10.072Z,19.31
2018-06-05T06:30:10.136Z,19.25
2018-06-05T06:31:10.205Z,19.27
2018-06-05T06:32:10.263Z,19.38
2018-06-05T06:33:10.325Z,19.28
2018-06-05T06:34:10.418Z,19.30
2018-06-05T06:35:10.453Z,19.38
2018-06-05T06:36:10.517Z,19.31
2018-06-05T06:37:10.579Z,19.39
2018-06-05T06:38:10.642Z,19.40
2018-06-05T06:39:10.705Z,19.39
2018-06-05T06:40:11.164Z,19.40
2018-06-05T06:41:11.414Z,19.38
2018-06-05T06:42:10.896Z,19.46
2018-06-05T06:43:10.962Z,19.55
2018-06-05T06:44:11.025Z,19.58
2018-06-05T06:45:11.090Z,19.57
2018-06-05T06:46:15.060Z,19.52
2018-06-05T06:47:11.214Z,19.50
2018-06-05T06:48:11.277Z,19.78
2018-06-05T06:49:11.342Z,19.67
2018-06-05T06:50:11.405Z,19.65
2018-06-05T06:51:11.470Z,19.64
2018-06-05T06:52:11.530Z,19.67
2018-06-05T06:53:11.596Z,19.89
2018-06-05T06:54:11.669Z,19.79
2018-06-05T06:55:11.723Z,19.79
2018-06-05T06:56:11.787Z,19.76
2018-06-05T06:57:11.851Z,19.82
2018-06-05T06:58:12.123Z,19.87
2018-06-05T06:59:11.979Z,19.89
2018-06-05T07:00:12.043Z,19.89
2018-06-05T07:01:12.107Z,19.98
2018-06-05T07:02:12.172Z,20.19
2018-06-05T07:03:12.237Z,20.17
2018-06-05T07:04:12.299Z,20.12
2018-06-05T07:05:12.386Z,20.33
2018-06-05T07:06:12.429Z,20.25
2018-06-05T07:07:12.493Z,20.35
2018-06-05T07:08:12.556Z,20.33
2018-06-05T07:09:12.622Z,20.27
2018-06-05T07:10:12.687Z,20.33
2018-06-05T07:11:12.752Z,20.25
2018-06-05T07:12:12.826Z,20.50
2018-06-05T07:13:12.881Z,20.69
2018-06-05T07:14:12.950Z,20.81
2018-06-05T07:15:13.693Z,20.60
2018-06-05T07:16:13.653Z,20.66
2018-06-05T07:17:13.142Z,20.54
2018-06-05T07:18:13.679Z,20.72
2018-06-05T07:19:13.269Z,20.63
2018-06-05T07:20:13.333Z,20.57
2018-06-05T07:21:13.935Z,20.51
2018-06-05T07:22:13.482Z,20.71
2018-06-05T07:23:13.548Z,20.85
2018-06-05T07:24:13.603Z,20.82
2018-06-05T07:25:13.662Z,20.66
2018-06-05T07:26:13.724Z,20.93
2018-06-05T07:27:13.807Z,20.82
2018-06-05T07:28:13.855Z,21.05
2018-06-05T07:29:13.920Z,21.08
2018-06-05T07:30:14.047Z,21.28
2018-06-05T07:31:14.051Z,21.26
2018-06-05T07:32:14.116Z,21.12
2018-06-05T07:33:14.181Z,21.15
2018-06-05T07:34:14.247Z,21.15
2018-06-05T07:35:14.313Z,21.26
2018-06-05T07:36:14.376Z,21.33
2018-06-05T07:37:14.446Z,21.24
2018-06-05T07:38:14.528Z,21.15
2018-06-05T07:39:14.594Z,21.24
2018-06-05T07:40:14.665Z,21.40
2018-06-05T07:41:14.725Z,21.46
2018-06-05T07:42:14.789Z,21.36
2018-06-05T07:43:14.852Z,21.22
2018-06-05T07:44:14.922Z,21.27
2018-06-05T07:45:15.314Z,21.26
2018-06-05T07:46:15.832Z,21.45
2018-06-05T07:47:15.123Z,21.38
2018-06-05T07:48:15.204Z,21.18
2018-06-05T07:49:15.940Z,21.13
2018-06-05T07:50:15.311Z,21.03
2018-06-05T07:51:15.763Z,21.09
2018-06-05T07:52:16.023Z,21.18
2018-06-05T07:53:15.514Z,21.26
2018-06-05T07:54:15.602Z,21.28
2018-06-05T07:55:15.656Z,21.24
2018-06-05T07:56:15.718Z,21.43
2018-06-05T07:57:15.760Z,21.37
2018-06-05T07:58:15.827Z,21.26
2018-06-05T07:59:15.893Z,21.49
2018-06-05T08:00:15.960Z,21.59
2018-06-05T08:01:16.028Z,21.77
2018-06-05T08:02:16.092Z,21.66
2018-06-05T08:03:16.160Z,21.40
2018-06-05T08:04:16.229Z,21.45
2018-06-05T08:05:16.291Z,21.70
2018-06-05T08:06:16.609Z,21.73
2018-06-05T08:07:16.425Z,21.81
2018-06-05T08:08:16.490Z,22.05
2018-06-05T08:09:16.557Z,22.02
2018-06-05T08:10:16.622Z,22.05
2018-06-05T08:11:16.693Z,22.30
2018-06-05T08:12:16.756Z,22.30
2018-06-05T08:13:17.340Z,22.29
2018-06-05T08:14:16.891Z,22.15
2018-06-05T08:15:16.960Z,22.06
2018-06-05T08:16:17.023Z,22.05
2018-06-05T08:17:17.091Z,22.11
2018-06-05T08:18:17.158Z,22.33
2018-06-05T08:19:17.225Z,22.26
2018-06-05T08:20:17.290Z,22.24
2018-06-05T08:21:17.359Z,22.26
2018-06-05T08:22:17.424Z,22.36
2018-06-05T08:23:17.494Z,22.57
2018-06-05T08:24:17.974Z,22.38
2018-06-05T08:25:17.626Z,22.23
2018-06-05T08:26:17.694Z,22.38
2018-06-05T08:27:17.761Z,22.61
2018-06-05T08:28:17.827Z,22.78
2018-06-05T08:29:17.895Z,22.60
2018-06-05T08:30:17.964Z,22.42
2018-06-05T08:31:18.032Z,22.54
2018-06-05T08:32:18.096Z,22.30
2018-06-05T08:33:18.163Z,22.56
2018-06-05T08:34:18.236Z,22.27
2018-06-05T08:35:18.299Z,22.17
2018-06-05T08:36:18.366Z,22.15
2018-06-05T08:37:18.434Z,22.33
2018-06-05T08:38:18.502Z,22.36
2018-06-05T08:39:18.569Z,22.21
2018-06-05T08:40:18.635Z,22.31
2018-06-05T08:41:18.703Z,22.29
2018-06-05T08:42:18.771Z,22.20
2018-06-05T08:43:18.839Z,22.35
2018-06-05T08:44:18.906Z,22.38
2018-06-05T08:45:18.975Z,22.49
2018-06-05T08:46:19.043Z,22.46
2018-06-05T08:47:19.110Z,22.46
2018-06-05T08:48:19.177Z,22.46
2018-06-05T08:49:19.246Z,22.17
2018-06-05T08:50:19.312Z,22.12
2018-06-05T08:51:19.380Z,22.24
2018-06-05T08:52:19.447Z,22.45
2018-06-05T08:53:19.517Z,22.45
2018-06-05T08:54:19.585Z,22.51
2018-06-05T08:55:19.650Z,22.64
2018-06-05T08:56:19.720Z,22.96
2018-06-05T08:57:19.785Z,22.60
2018-06-05T08:58:19.855Z,22.84
2018-06-05T08:59:19.923Z,22.85
2018-06-05T09:00:19.989Z,22.88
2018-06-05T09:01:20.058Z,22.61
2018-06-05T09:02:20.125Z,22.72
2018-06-05T09:03:20.195Z,22.99
2018-06-05T09:04:20.262Z,23.11
2018-06-05T09:05:20.370Z,23.31
2018-06-05T09:06:20.398Z,23.38
2018-06-05T09:07:20.470Z,23.52
2018-06-05T09:08:20.842Z,23.39
2018-06-05T09:09:20.752Z,23.47
2018-06-05T09:10:20.671Z,23.31
2018-06-05T09:11:20.738Z,23.12
2018-06-05T09:12:20.807Z,23.06
2018-06-05T09:13:21.453Z,22.96
2018-06-05T09:14:21.800Z,22.82
2018-06-05T09:15:21.625Z,23.01
2018-06-05T09:16:21.807Z,22.75
2018-06-05T09:17:22.080Z,22.85
2018-06-05T09:19:21.288Z,22.93
2018-06-05T09:20:21.358Z,22.93
2018-06-05T09:21:21.422Z,22.82
2018-06-05T09:22:21.524Z,23.11
2018-06-05T09:23:21.561Z,23.01
2018-06-05T09:24:21.630Z,23.25
2018-06-05T09:25:21.697Z,23.47
2018-06-05T09:26:21.767Z,23.50
2018-06-05T09:27:21.836Z,23.71
2018-06-05T09:28:22.690Z,23.97
2018-06-05T09:29:22.736Z,23.60
2018-06-05T09:30:22.726Z,23.56
2018-06-05T09:32:22.178Z,23.38
2018-06-05T09:33:22.247Z,23.21
2018-06-05T09:34:22.331Z,22.84
2018-06-05T09:35:22.385Z,22.44
2018-06-05T09:36:22.453Z,22.59
2018-06-05T09:37:22.522Z,23.06
2018-06-05T09:38:23.120Z,22.96
2018-06-05T09:39:22.689Z,22.76
2018-06-05T09:40:22.730Z,22.85
2018-06-05T09:41:22.798Z,23.03
2018-06-05T09:42:24.214Z,23.16
2018-06-05T09:43:24.020Z,23.11
2018-06-05T09:44:23.701Z,23.32
2018-06-05T09:45:23.737Z,23.39
2018-06-05T09:46:23.908Z,23.44
2018-06-05T09:47:23.920Z,23.71
2018-06-05T09:48:24.012Z,23.68
2018-06-05T09:49:24.108Z,23.50
2018-06-05T09:50:24.134Z,23.39
2018-06-05T09:51:23.893Z,23.39
2018-06-05T09:52:23.998Z,23.50
2018-06-05T09:53:24.016Z,23.68
2018-06-05T09:54:24.219Z,23.89
2018-06-05T09:55:24.431Z,24.09
2018-06-05T09:56:24.288Z,24.04
2018-06-05T09:57:23.897Z,24.05
2018-06-05T09:58:24.208Z,24.19
2018-06-05T09:59:24.036Z,24.44
2018-06-05T10:00:24.104Z,24.37
2018-06-05T10:01:24.174Z,24.30
2018-06-05T10:02:24.246Z,24.15
2018-06-05T10:03:24.316Z,24.06
2018-06-05T10:04:24.380Z,24.12
2018-06-05T10:05:24.451Z,24.15
2018-06-05T10:06:24.522Z,24.49
2018-06-05T10:07:24.590Z,24.44
2018-06-05T10:08:25.170Z,23.37
2018-06-05T10:09:24.730Z,23.35
2018-06-05T10:10:24.799Z,23.67
2018-06-05T10:11:24.871Z,24.04
2018-06-05T10:12:24.939Z,24.31
2018-06-05T10:13:25.062Z,24.30
2018-06-05T10:14:25.086Z,24.21
2018-06-05T10:15:25.152Z,24.52
2018-06-05T10:16:25.223Z,24.64
2018-06-05T10:17:25.293Z,24.63
2018-06-05T10:18:25.366Z,24.86
2018-06-05T10:19:25.439Z,25.46
2018-06-05T10:20:25.563Z,25.74
2018-06-05T10:21:25.585Z,26.13
2018-06-05T10:22:25.649Z,26.21
2018-06-05T10:23:25.722Z,26.54
2018-06-05T10:24:25.792Z,26.29
2018-06-05T10:25:25.864Z,26.29
2018-06-05T10:26:25.937Z,26.09
2018-06-05T10:27:26.011Z,25.69
2018-06-05T10:28:26.080Z,25.93
2018-06-05T10:29:26.153Z,25.69
2018-06-05T10:30:26.226Z,25.98
2018-06-05T10:31:26.298Z,26.21
2018-06-05T10:32:26.373Z,26.17
2018-06-05T10:33:26.443Z,26.09
2018-06-05T10:34:26.517Z,26.03
2018-06-05T10:35:26.594Z,26.42
2018-06-05T10:36:26.662Z,26.73
2018-06-05T10:37:26.735Z,25.82
2018-06-05T10:38:26.809Z,25.96
2018-06-05T10:39:26.882Z,26.09
2018-06-05T10:40:26.954Z,25.34
2018-06-05T10:41:27.032Z,25.98
2018-06-05T10:42:27.100Z,26.11
2018-06-05T10:43:27.176Z,26.21
2018-06-05T10:44:27.248Z,26.83
2018-06-05T10:45:27.324Z,26.78
2018-06-05T10:46:27.396Z,26.90
2018-06-05T10:47:27.469Z,26.72
2018-06-05T10:48:27.542Z,27.06
2018-06-05T10:49:27.616Z,27.46
2018-06-05T10:50:28.274Z,27.84
2018-06-05T10:51:28.116Z,27.98
2018-06-05T10:52:27.837Z,27.71
2018-06-05T10:53:27.913Z,27.39
2018-06-05T10:54:27.987Z,27.59
2018-06-05T10:55:28.064Z,27.50
2018-06-05T10:56:28.139Z,27.25
2018-06-05T10:57:28.792Z,27.09
2018-06-05T10:58:28.286Z,27.42
2018-06-05T10:59:28.368Z,27.86
2018-06-05T11:00:28.510Z,27.90
2018-06-05T11:01:28.508Z,27.91
2018-06-05T11:02:28.733Z,27.86
2018-06-05T11:03:28.658Z,27.91
2018-06-05T11:04:28.734Z,27.30
2018-06-05T11:05:28.808Z,27.55
2018-06-05T11:06:28.883Z,27.52
2018-06-05T11:07:28.957Z,27.52
2018-06-05T11:08:29.032Z,27.16
2018-06-05T11:09:29.107Z,27.30
2018-06-05T11:10:29.182Z,27.27
2018-06-05T11:11:29.257Z,27.39
2018-06-05T11:12:29.332Z,27.84
2018-06-05T11:13:29.411Z,28.23
2018-06-05T11:14:29.553Z,28.45
2018-06-05T11:15:29.560Z,28.65
2018-06-05T11:16:29.632Z,28.46
2018-06-05T11:17:29.707Z,27.83
2018-06-05T11:18:29.782Z,27.59
2018-06-05T11:19:29.858Z,27.35
2018-06-05T11:20:29.932Z,27.87
2018-06-05T11:21:30.008Z,28.39
2018-06-05T11:22:30.084Z,28.36
2018-06-05T11:23:30.158Z,28.18
2018-06-05T11:24:30.837Z,28.15
2018-06-05T11:25:30.310Z,28.30
2018-06-05T11:26:30.383Z,28.27
2018-06-05T11:27:30.459Z,28.02
2018-06-05T11:28:30.533Z,28.20
2018-06-05T11:29:30.609Z,28.45
2018-06-05T11:30:31.004Z,28.77
2018-06-05T11:31:30.759Z,29.05
2018-06-05T11:32:30.836Z,28.46
2018-06-05T11:33:30.909Z,28.51
2018-06-05T11:34:30.986Z,28.95
2018-06-05T11:35:31.370Z,29.45
2018-06-05T11:36:31.139Z,29.84
2018-06-05T11:37:31.211Z,29.14
2018-06-05T11:38:31.288Z,28.45
2018-06-05T11:39:31.369Z,28.65
2018-06-05T11:40:31.437Z,28.91
2018-06-05T11:41:31.513Z,29.62
2018-06-05T11:42:31.611Z,29.57
2018-06-05T11:43:31.667Z,29.57
2018-06-05T11:44:31.740Z,29.66
2018-06-05T11:45:31.821Z,29.32
2018-06-05T11:46:31.900Z,29.41
2018-06-05T11:47:31.971Z,29.76
2018-06-05T11:48:32.294Z,29.78
2018-06-05T11:49:32.119Z,29.21
2018-06-05T11:50:32.196Z,29.32
2018-06-05T11:51:32.279Z,29.33
2018-06-05T11:52:32.347Z,29.26
2018-06-05T11:53:32.423Z,29.58
2018-06-05T11:54:32.500Z,29.63
2018-06-05T11:55:32.575Z,29.26
2018-06-05T11:56:32.649Z,29.23
2018-06-05T11:57:32.731Z,29.57
2018-06-05T11:58:32.802Z,29.81
2018-06-05T11:59:32.881Z,29.60
2018-06-05T12:00:32.983Z,30.08
2018-06-05T12:01:33.031Z,30.16
2018-06-05T12:02:33.106Z,29.51
2018-06-05T12:03:33.182Z,29.79
2018-06-05T12:04:33.259Z,29.66
2018-06-05T12:05:33.334Z,29.76
2018-06-05T12:06:33.514Z,30.15
2018-06-05T12:07:33.487Z,30.25
2018-06-05T12:08:33.562Z,30.25
2018-06-05T12:09:33.640Z,30.15
2018-06-05T12:10:33.715Z,30.25
2018-06-05T12:11:33.791Z,30.34
2018-06-05T12:12:33.867Z,30.21
2018-06-05T12:13:33.943Z,29.95
2018-06-05T12:14:34.020Z,29.92
2018-06-05T12:15:34.097Z,29.74
2018-06-05T12:16:34.172Z,30.08
2018-06-05T12:17:34.249Z,30.22
2018-06-05T12:18:34.324Z,30.18
2018-06-05T12:19:34.403Z,30.11
2018-06-05T12:20:34.498Z,30.86
2018-06-05T12:21:34.565Z,30.90
2018-06-05T12:22:34.638Z,31.20
2018-06-05T12:23:34.707Z,31.13
2018-06-05T12:24:34.783Z,31.18
2018-06-05T12:25:34.892Z,30.88
2018-06-05T12:26:34.945Z,31.03
2018-06-05T12:27:35.013Z,30.93
2018-06-05T12:28:35.089Z,30.88
2018-06-05T12:29:35.185Z,30.97
2018-06-05T12:30:35.242Z,31.27
2018-06-05T12:31:35.319Z,31.37
2018-06-05T12:32:35.394Z,31.42
2018-06-05T12:33:35.472Z,31.50
2018-06-05T12:34:35.549Z,31.05
2018-06-05T12:35:35.626Z,31.76
2018-06-05T12:36:35.703Z,31.49
2018-06-05T12:37:35.780Z,30.94
2018-06-05T12:38:35.856Z,31.38
2018-06-05T12:39:35.933Z,31.50
2018-06-05T12:40:36.009Z,31.62
2018-06-05T12:41:36.105Z,31.01
2018-06-05T12:42:36.165Z,31.03
2018-06-05T12:43:36.240Z,31.01
2018-06-05T12:44:36.316Z,31.18
2018-06-05T12:45:36.393Z,31.53
2018-06-05T12:46:36.470Z,31.62
2018-06-05T12:47:36.548Z,31.67
2018-06-05T12:48:36.624Z,31.52
2018-06-05T12:49:36.702Z,30.88
2018-06-05T12:50:36.778Z,31.05
2018-06-05T12:51:36.908Z,31.25
2018-06-05T12:52:36.934Z,31.79
2018-06-05T12:53:37.011Z,31.99
2018-06-05T12:54:37.087Z,31.59
2018-06-05T12:55:37.166Z,31.98
2018-06-05T12:56:37.239Z,31.20